CheckWX is a tool to help pilots better visualize weather data.  It is not intended as a substitute for an official pre-flight weather briefing.

18:04:44 UTC

KDVP METAR
Slayton Municipal Airport
Slayton, Minnesota, USA
Current

26 mins ago

KDVP 241739Z AUTO 21017KT 10SM BKN090 19/04 A2982 RMK AO2 T01880039
Observed
Apr-24 @ 17:39 UTC
Wind
  • 210° at 17 KTS
Visibility
10 SM
Flight Rules
VFR
Cloud Levels
  • Broken at 9,000' AGL
Temperature
19°C / 66°F
Dewpoint
C / 39°F
Humidity
37%
Altimeter
29.82" Hg
Pressure
1009.82 hPa
Previous

2 hours ago

KDVP 241619Z AUTO 21021KT 10SM SCT090 SCT120 17/04 A2983 RMK AO2 T01660040
Observed
Apr-24 @ 16:19 UTC
Wind
  • 210° at 21 KTS
Visibility
10 SM
Flight Rules
VFR
Cloud Levels
  • Scattered at 9,000' AGL
  • Scattered at 12,000' AGL
Temperature
17°C / 63°F
Dewpoint
C / 39°F
Humidity
42%
Altimeter
29.83" Hg
Pressure
1010.12 hPa
Previous

2 hours ago

KDVP 241539Z AUTO 20018G24KT 10SM CLR 16/04 A2984 RMK AO2 T01550042
Observed
Apr-24 @ 15:39 UTC
Wind
  • 200° at 18 KTS
  • Gusting to 24 KTS
Visibility
10 SM
Flight Rules
VFR
Cloud Levels
  • Clear skies
Temperature
16°C / 61°F
Dewpoint
C / 39°F
Humidity
45%
Altimeter
29.84" Hg
Pressure
1010.52 hPa